Time;durP1;ratioP1;P1;durP2;ratioP2;P2;SDS_P1;SDS_P2;PMS_P1;PMS_P2;Temp;Humidity;BMP_temperature;BMP_pressure;BME280_temperature;BME280_humidity;BME280_pressure;Samples;Min_cycle;Max_cycle;Signal;HPM_P1;HPM_P2
2022/01/04 00:01:15;;;;;;;3.45;1.20;;;;;;;;;;5067699;28;20029;-63
2022/01/04 00:03:41;;;;;;;3.15;1.52;;;;;;;;;;5068321;28;20044;-63
2022/01/04 00:06:08;;;;;;;3.03;1.10;;;;;;;;;;5068278;28;20372;-63
2022/01/04 00:08:34;;;;;;;2.10;1.02;;;;;;;;;;5049492;28;20044;-64
2022/01/04 00:11:18;;;;;;;0.98;0.85;;;;;;;;;;5047771;28;20060;-64
2022/01/04 00:13:44;;;;;;;1.77;1.00;;;;;;;;;;5048408;28;20438;-64
2022/01/04 00:16:11;;;;;;;3.45;1.08;;;;;;;;;;5048147;28;20040;-64
2022/01/04 00:18:41;;;;;;;2.85;0.88;;;;;;;;;;5048197;28;20506;-62
2022/01/04 00:21:07;;;;;;;1.85;1.13;;;;;;;;;;5047467;28;20029;-64
2022/01/04 00:23:33;;;;;;;1.00;0.80;;;;;;;;;;5047746;28;20033;-63
2022/01/04 00:25:59;;;;;;;1.70;1.20;;;;;;;;;;5047739;28;20021;-62
2022/01/04 00:28:27;;;;;;;1.33;1.02;;;;;;;;;;5048049;28;20034;-63
2022/01/04 00:30:53;;;;;;;0.90;0.90;;;;;;;;;;5047313;28;20029;-62
2022/01/04 00:33:19;;;;;;;3.08;1.20;;;;;;;;;;5047044;28;20037;-63
2022/01/04 00:35:45;;;;;;;1.75;0.90;;;;;;;;;;5047879;28;20440;-63
2022/01/04 00:38:11;;;;;;;2.65;1.20;;;;;;;;;;5046966;28;20108;-64
2022/01/04 00:40:38;;;;;;;1.52;1.10;;;;;;;;;;5046952;28;20033;-64
2022/01/04 00:43:04;;;;;;;2.88;1.10;;;;;;;;;;5047759;28;20469;-64
2022/01/04 00:45:36;;;;;;;4.75;1.90;;;;;;;;;;5034404;28;20034;-64
2022/01/04 00:50:30;;;;;;;3.05;1.30;;;;;;;;;;5033698;28;20156;-63
2022/01/04 00:52:56;;;;;;;1.77;1.10;;;;;;;;;;5033865;28;20075;-63
2022/01/04 00:55:22;;;;;;;1.77;1.10;;;;;;;;;;5034489;28;20028;-64
2022/01/04 00:57:48;;;;;;;2.17;1.20;;;;;;;;;;5034298;28;20021;-63
2022/01/04 01:00:15;;;;;;;1.30;1.20;;;;;;;;;;5032934;28;20487;-64
2022/01/04 01:02:42;;;;;;;3.55;1.30;;;;;;;;;;5034274;28;20113;-64
2022/01/04 01:05:08;;;;;;;3.22;1.00;;;;;;;;;;5034665;28;20048;-64
2022/01/04 01:07:35;;;;;;;1.70;1.25;;;;;;;;;;5033895;28;20034;-63
2022/01/04 01:12:27;;;;;;;1.52;1.30;;;;;;;;;;5033927;28;20115;-63
2022/01/04 01:14:53;;;;;;;2.55;1.30;;;;;;;;;;5033807;28;20088;-62
2022/01/04 01:17:19;;;;;;;2.30;1.17;;;;;;;;;;5033253;28;20121;-63
2022/01/04 01:19:45;;;;;;;2.95;1.58;;;;;;;;;;5033026;28;20100;-63
2022/01/04 01:22:11;;;;;;;2.60;1.20;;;;;;;;;;5033653;28;20480;-62
2022/01/04 01:24:37;;;;;;;3.83;1.30;;;;;;;;;;5033867;28;20419;-63
2022/01/04 01:27:04;;;;;;;1.67;1.17;;;;;;;;;;5033661;28;20029;-63
2022/01/04 01:29:30;;;;;;;3.30;1.25;;;;;;;;;;5032811;28;20080;-63
2022/01/04 01:31:56;;;;;;;3.20;1.30;;;;;;;;;;5032691;28;20391;-64
2022/01/04 01:34:23;;;;;;;1.00;1.00;;;;;;;;;;5033323;28;20038;-64
2022/01/04 01:36:49;;;;;;;1.30;1.20;;;;;;;;;;5033162;28;20140;-63
2022/01/04 01:39:15;;;;;;;1.75;1.15;;;;;;;;;;5032892;28;20662;-64
2022/01/04 01:41:41;;;;;;;1.48;1.30;;;;;;;;;;5033462;28;20022;-63
2022/01/04 01:44:07;;;;;;;3.25;1.50;;;;;;;;;;5033357;28;20076;-62
2022/01/04 01:46:34;;;;;;;2.90;1.27;;;;;;;;;;5033318;28;20546;-63
2022/01/04 01:49:00;;;;;;;2.88;1.40;;;;;;;;;;5032380;28;20454;-63
2022/01/04 01:51:28;;;;;;;1.25;1.20;;;;;;;;;;5033101;28;20033;-63
2022/01/04 01:53:54;;;;;;;1.75;1.48;;;;;;;;;;5033392;28;20124;-63
2022/01/04 01:56:21;;;;;;;2.35;1.90;;;;;;;;;;5032206;28;20104;-63
2022/01/04 01:58:47;;;;;;;2.70;1.73;;;;;;;;;;5033373;28;20531;-65
2022/01/04 02:01:13;;;;;;;1.40;1.25;;;;;;;;;;5033101;28;20113;-63
2022/01/04 02:03:39;;;;;;;2.38;1.38;;;;;;;;;;5032613;28;20030;-63
2022/01/04 02:06:06;;;;;;;2.63;1.42;;;;;;;;;;5032967;28;20482;-63
2022/01/04 02:08:32;;;;;;;2.47;1.65;;;;;;;;;;5032778;28;20084;-63
2022/01/04 02:10:58;;;;;;;3.58;1.98;;;;;;;;;;5033162;28;20373;-62
2022/01/04 02:13:25;;;;;;;3.25;2.03;;;;;;;;;;5033830;28;20113;-63
2022/01/04 02:15:55;;;;;;;2.08;1.42;;;;;;;;;;5035205;28;20468;-62
2022/01/04 02:18:21;;;;;;;1.75;1.55;;;;;;;;;;5034313;28;20032;-62
2022/01/04 02:20:47;;;;;;;2.65;1.45;;;12.70;99.90;;;;;;5033646;28;20021;-62
2022/01/04 02:23:13;;;;;;;1.88;1.45;;;;;;;;;;5034814;28;20396;-63
2022/01/04 02:25:39;;;;;;;1.92;1.60;;;;;;;;;;5031912;28;20060;-62
2022/01/04 02:28:05;;;;;;;1.52;1.40;;;;;;;;;;5032677;28;20029;-62
2022/01/04 02:30:31;;;;;;;5.15;2.00;;;;;;;;;;5032462;28;20408;-64
2022/01/04 02:32:59;;;;;;;3.50;2.00;;;;;;;;;;5061389;28;20029;-63
2022/01/04 02:35:26;;;;;;;2.60;1.50;;;;;;;;;;5067989;28;20036;-62
2022/01/04 02:37:56;;;;;;;5.07;1.58;;;;;;;;;;5053214;28;20078;-62
2022/01/04 02:40:22;;;;;;;3.00;1.52;;;;;;;;;;5031656;28;20033;-63
2022/01/04 02:42:48;;;;;;;2.88;1.60;;;;;;;;;;5032327;28;20096;-63
2022/01/04 02:45:14;;;;;;;3.05;1.40;;;;;;;;;;5032482;28;20029;-63
2022/01/04 02:47:41;;;;;;;2.15;1.20;;;;;;;;;;5032572;28;20101;-63
2022/01/04 02:50:08;;;;;;;1.70;1.50;;;;;;;;;;5031676;28;20190;-63
2022/01/04 02:52:34;;;;;;;3.33;2.05;;;;;;;;;;5032164;28;20041;-63
2022/01/04 02:55:04;;;;;;;3.35;1.60;;;;;;;;;;5031676;28;20022;-63
2022/01/04 02:57:30;;;;;;;2.33;1.45;;;;;;;;;;5032166;28;20399;-63
2022/01/04 02:59:56;;;;;;;1.40;1.30;;;;;;;;;;5031183;28;20022;-64
2022/01/04 03:02:22;;;;;;;1.67;1.23;;;;;;;;;;5031978;28;20116;-63
2022/01/04 03:04:48;;;;;;;4.47;1.50;;;;;;;;;;5030207;28;20029;-63
2022/01/04 03:07:14;;;;;;;2.30;1.25;;;;;;;;;;5030567;28;20402;-63
2022/01/04 03:09:41;;;;;;;2.30;1.30;;;;;;;;;;5031168;28;20025;-65
2022/01/04 03:12:07;;;;;;;1.35;1.25;;;;;;;;;;5031597;28;20476;-63
2022/01/04 03:14:34;;;;;;;3.58;1.75;;;;;;;;;;5031650;28;20037;-63
2022/01/04 03:17:00;;;;;;;1.67;1.23;;;;;;;;;;5031730;28;20092;-64
2022/01/04 03:19:26;;;;;;;1.45;1.27;;;;;;;;;;5031011;28;20450;-64
2022/01/04 03:21:52;;;;;;;2.35;1.58;;;;;;;;;;5031594;28;20022;-63
2022/01/04 03:24:18;;;;;;;1.40;1.30;;;;;;;;;;5042345;23;20048;-63
2022/01/04 03:26:44;;;;;;;1.90;1.30;;;;;;;;;;5002277;28;20480;-64
2022/01/04 03:29:12;;;;;;;1.60;1.30;;;;;;;;;;5025885;28;20092;-65
2022/01/04 03:31:38;;;;;;;1.45;1.35;;;;;;;;;;5011713;28;20030;-64
2022/01/04 03:34:04;;;;;;;1.30;1.20;;;;;;;;;;5011661;28;20025;-64
2022/01/04 03:36:31;;;;;;;1.63;1.52;;;;;;;;;;5011692;28;20546;-65
2022/01/04 03:38:57;;;;;;;2.72;1.40;;;;;;;;;;5011640;28;20052;-64
2022/01/04 03:41:25;;;;;;;1.77;1.48;;;;;;;;;;5010630;28;20084;-63
2022/01/04 03:43:51;;;;;;;1.70;1.60;;;;;;;;;;5011344;28;20105;-64
2022/01/04 03:46:17;;;;;;;1.65;1.55;;;;;;;;;;5011574;28;20052;-64
2022/01/04 03:48:43;;;;;;;1.30;1.20;;;;;;;;;;5011692;28;20120;-64
2022/01/04 03:51:09;;;;;;;2.20;1.60;;;;;;;;;;5010894;28;20036;-65
2022/01/04 03:53:36;;;;;;;2.03;1.63;;;;;;;;;;5011468;28;20505;-64
2022/01/04 03:56:02;;;;;;;1.70;1.60;;;;;;;;;;5010886;28;20028;-63
2022/01/04 03:58:28;;;;;;;3.55;1.30;;;;;;;;;;5011623;28;20030;-64
2022/01/04 04:00:54;;;;;;;1.63;1.50;;;;;;;;;;5010877;28;20412;-64
2022/01/04 04:03:20;;;;;;;2.47;1.88;;;;;;;;;;5011540;28;20160;-64
2022/01/04 04:05:46;;;;;;;2.58;1.40;;;;;;;;;;5011414;28;20480;-64
2022/01/04 04:08:12;;;;;;;3.30;1.55;;;;;;;;;;5009981;28;20121;-64
2022/01/04 04:10:39;;;;;;;3.80;1.95;;;;;;;;;;5010574;28;20507;-64
2022/01/04 04:13:05;;;;;;;2.38;1.42;;;;;;;;;;5011324;28;20420;-64
2022/01/04 04:15:31;;;;;;;3.15;1.45;;;;;;;;;;5011519;28;20369;-64
2022/01/04 04:17:57;;;;;;;2.17;1.73;;;;;;;;;;5011396;28;20022;-64
2022/01/04 04:20:23;;;;;;;1.98;1.50;;;;;;;;;;5013004;28;20088;-64
2022/01/04 04:22:49;;;;;;;2.15;1.30;;;;;;;;;;5014650;28;20026;-64
2022/01/04 04:25:15;;;;;;;1.67;1.38;;;;;;;;;;5014387;28;20411;-65
2022/01/04 04:27:41;;;;;;;2.53;1.70;;;;;;;;;;5014918;28;20030;-63
2022/01/04 04:30:08;;;;;;;1.80;1.70;;;;;;;;;;5013166;28;20413;-63
2022/01/04 04:32:34;;;;;;;2.90;1.42;;;;;;;;;;5014594;28;20368;-63
2022/01/04 04:35:00;;;;;;;2.63;1.60;;;;;;;;;;5014594;28;20536;-63
2022/01/04 04:37:26;;;;;;;3.00;1.67;;;;;;;;;;5013406;28;20109;-63
2022/01/04 04:39:52;;;;;;;1.65;1.55;;;;;;;;;;5013843;28;20088;-64
2022/01/04 04:42:18;;;;;;;1.85;1.60;;;;;;;;;;5014507;28;20480;-63
2022/01/04 04:44:45;;;;;;;2.53;1.80;;;10.50;99.90;;;;;;5014718;28;20137;-63
2022/01/04 04:47:11;;;;;;;3.65;1.90;;;;;;;;;;5014781;28;20030;-63
2022/01/04 04:49:37;;;;;;;1.95;1.85;;;;;;;;;;5013811;28;20026;-63
2022/01/04 04:52:04;;;;;;;2.97;1.52;;;;;;;;;;5014232;28;20427;-63
2022/01/04 04:54:31;;;;;;;2.30;1.30;;;;;;;;;;5013072;28;20156;-64
2022/01/04 04:56:57;;;;;;;2.20;1.60;;;;;;;;;;5014437;28;20033;-63
2022/01/04 04:59:23;;;;;;;2.97;1.67;;;;;;;;;;5013733;28;20034;-63
2022/01/04 05:01:50;;;;;;;2.45;1.80;;;;;;;;;;4981047;28;20162;-63
2022/01/04 05:04:16;;;;;;;4.30;1.73;;;;;;;;;;4975505;28;20031;-63
2022/01/04 05:06:42;;;;;;;2.95;1.55;;;;;;;;;;4988052;28;20022;-62
2022/01/04 05:09:08;;;;;;;1.70;1.42;;;;;;;;;;5013494;28;20101;-63
2022/01/04 05:11:34;;;;;;;3.70;1.58;;;;;;;;;;5013957;28;20037;-63
2022/01/04 05:14:00;;;;;;;1.95;1.70;;;;;;;;;;5014032;28;20037;-63
2022/01/04 05:16:26;;;;;;;1.60;1.50;;;;;;;;;;5014136;28;20413;-63
2022/01/04 05:18:52;;;;;;;1.77;1.67;;;;;;;;;;5013244;28;20038;-63
2022/01/04 05:21:18;;;;;;;2.83;1.48;;;;;;;;;;5013315;28;20026;-63
2022/01/04 05:23:44;;;;;;;1.55;1.40;;;;;;;;;;5013774;28;20038;-62
2022/01/04 05:26:10;;;;;;;1.85;1.70;;;;;;;;;;5007938;28;20035;-64
2022/01/04 05:28:36;;;;;;;3.42;1.88;;;;;;;;;;4994560;28;20129;-64
2022/01/04 05:31:02;;;;;;;4.13;1.90;;;;;;;;;;4993713;28;20026;-64
2022/01/04 05:33:28;;;;;;;2.00;1.60;;;;;;;;;;4994375;28;20089;-63
2022/01/04 05:35:54;;;;;;;3.03;1.63;;;;;;;;;;4996833;28;20029;-63
2022/01/04 05:38:20;;;;;;;3.58;1.90;;;;;;;;;;5010177;28;20498;-64
2022/01/04 05:40:46;;;;;;;1.75;1.55;;;;;;;;;;5012919;28;20064;-64
2022/01/04 05:43:13;;;;;;;6.30;1.40;;;;;;;;;;5013604;28;20061;-63
2022/01/04 05:45:39;;;;;;;3.13;1.20;;;;;;;;;;5013534;28;20034;-63
2022/01/04 05:48:06;;;;;;;2.63;1.58;;;;;;;;;;5012234;28;20052;-63
2022/01/04 05:50:34;;;;;;;1.58;1.10;;;;;;;;;;5012774;28;20099;-63
2022/01/04 05:53:00;;;;;;;1.20;1.10;;;9.00;99.90;;;;;;5013045;28;20045;-64
2022/01/04 05:55:26;;;;;;;1.50;1.23;;;;;;;;;;5013266;28;20064;-64
2022/01/04 05:57:52;;;;;;;2.28;0.98;;;;;;;;;;5013556;28;20022;-64
2022/01/04 06:00:18;;;;;;;2.63;0.98;;;10.70;99.90;;;;;;5012743;28;20041;-64
2022/01/04 06:02:44;;;;;;;1.00;1.00;;;10.90;99.90;;;;;;5010514;28;20030;-68
2022/01/04 06:05:10;;;;;;;3.28;1.00;;;;;;;;;;4984669;28;20080;-69
2022/01/04 06:07:37;;;;;;;2.05;0.73;;;;;;;;;;4995978;28;20120;-68
2022/01/04 06:10:07;;;;;;;2.88;0.93;;;11.00;99.90;;;;;;4987259;28;20154;-69
2022/01/04 06:15:10;;;;;;;1.10;1.02;;;9.50;99.90;;;;;;4993129;28;20034;-73
2022/01/04 06:17:42;;;;;;;1.75;1.10;;;11.70;99.90;;;;;;4993042;28;20033;-77
2022/01/04 06:20:09;;;;;;;;;;;11.00;99.90;;;;;;4998818;28;20067;-75
2022/01/04 06:22:34;;;;;;;2.17;0.90;;;10.60;99.90;;;;;;5015905;28;19897;-76
2022/01/04 06:25:01;;;;;;;0.90;0.90;;;10.50;99.90;;;;;;5016533;28;20077;-77
2022/01/04 06:27:27;;;;;;;3.65;1.08;;;11.50;99.90;;;;;;5015663;28;20030;-76
2022/01/04 06:29:53;;;;;;;2.33;0.90;;;9.70;99.90;;;;;;5002590;28;20041;-78
2022/01/04 06:32:18;;;;;;;1.08;0.80;;;10.10;99.90;;;;;;4993773;28;20066;-77
2022/01/04 06:34:44;;;;;;;0.85;0.82;;;12.30;99.90;;;;;;5009423;28;20035;-76
2022/01/04 06:37:12;;;;;;;2.55;1.13;;;9.90;99.90;;;;;;5020925;28;20053;-75
2022/01/04 06:39:38;;;;;;;1.10;0.80;;;10.80;99.90;;;;;;5030758;28;20034;-78
2022/01/04 06:42:04;;;;;;;0.80;0.80;;;11.20;99.90;;;;;;5013417;28;20109;-77
2022/01/04 06:44:30;;;;;;;2.00;0.80;;;10.60;99.90;;;;;;5012860;28;20081;-77
2022/01/04 06:46:56;;;;;;;0.90;0.80;;;10.70;99.90;;;;;;5012866;28;20034;-76
2022/01/04 06:49:23;;;;;;;1.42;0.70;;;11.50;99.90;;;;;;5012429;28;20044;-77
2022/01/04 06:51:49;;;;;;;1.98;0.90;;;10.80;99.90;;;;;;5012639;28;20030;-77
2022/01/04 06:54:17;;;;;;;1.52;0.80;;;10.40;99.90;;;;;;5012975;28;20041;-77
2022/01/04 06:56:43;;;;;;;2.50;0.95;;;11.30;99.90;;;;;;5010518;28;20393;-77
2022/01/04 06:59:09;;;;;;;1.90;0.65;;;10.80;99.90;;;;;;5001215;28;20121;-77
2022/01/04 07:01:36;;;;;;;0.90;0.90;;;12.60;99.90;;;;;;4975283;28;20030;-77
2022/01/04 07:04:02;;;;;;;1.42;0.80;;;;;;;;;;4993032;28;20026;-77
2022/01/04 07:06:27;;;;;;;0.90;0.90;;;10.80;99.90;;;;;;4993147;28;20074;-77
2022/01/04 07:08:53;;;;;;;0.77;0.77;;;9.90;99.90;;;;;;5011658;28;20069;-77
2022/01/04 07:11:19;;;;;;;0.70;0.70;;;9.70;99.90;;;;;;5012043;28;20088;-77
2022/01/04 07:13:45;;;;;;;0.80;0.80;;;11.50;99.90;;;;;;5007612;28;20029;-78
2022/01/04 07:16:11;;;;;;;0.95;0.80;;;10.20;99.90;;;;;;4985557;28;20038;-75
2022/01/04 07:18:37;;;;;;;0.70;0.70;;;;;;;;;;4992578;28;20050;-79
2022/01/04 07:21:03;;;;;;;0.98;0.93;;;11.90;99.90;;;;;;4991174;28;20026;-78
2022/01/04 07:23:29;;;;;;;1.45;0.98;;;;;;;;;;4992525;28;20083;-78
2022/01/04 07:25:55;;;;;;;4.53;1.20;;;10.70;99.90;;;;;;4991152;28;20552;-78
2022/01/04 07:28:22;;;;;;;0.90;0.80;;;9.90;99.90;;;;;;4991418;28;20050;-78
2022/01/04 07:30:48;;;;;;;0.90;0.88;;;12.40;99.90;;;;;;4991532;28;20035;-78
2022/01/04 07:33:17;;;;;;;1.73;1.25;;;;;;;;;;4992423;28;20027;-77
2022/01/04 07:35:45;;;;;;;1.15;0.82;;;10.80;99.90;;;;;;4992277;28;20029;-77
2022/01/04 07:38:12;;;;;;;9.10;7.38;;;10.90;99.90;;;;;;5008316;28;20807;-71
2022/01/04 07:40:38;;;;;;;47.13;32.42;;;11.20;99.90;;;;;;5011181;28;20034;-71
2022/01/04 07:43:03;;;;;;;8.98;6.95;;;10.90;99.90;;;;;;5008891;28;20030;-69
2022/01/04 07:45:30;;;;;;;25.90;18.73;;;11.00;99.90;;;;;;4991247;28;20525;-70
2022/01/04 07:47:56;;;;;;;30.90;26.02;;;;;;;;;;4992256;28;20381;-69
2022/01/04 07:50:23;;;;;;;62.78;54.05;;;8.70;99.90;;;;;;4990846;28;20026;-70
2022/01/04 07:52:48;;;;;;;11.38;10.18;;;11.20;99.90;;;;;;4991130;28;20058;-71
2022/01/04 07:55:14;;;;;;;4.82;4.40;;;11.40;99.90;;;;;;4993611;28;20429;-70
2022/01/04 07:57:42;;;;;;;2.75;2.55;;;;;;;;;;5005570;28;20022;-70
2022/01/04 08:00:08;;;;;;;3.95;3.42;;;;;;;;;;5009444;28;20038;-70
2022/01/04 08:02:34;;;;;;;1.90;1.60;;;12.20;99.90;;;;;;4992615;28;20058;-70
2022/01/04 08:04:59;;;;;;;2.60;1.30;;;10.80;99.90;;;;;;4977267;28;20027;-70
2022/01/04 08:07:25;;;;;;;3.38;1.20;;;11.00;99.90;;;;;;4994905;28;20029;-70
2022/01/04 08:09:52;;;;;;;2.15;1.70;;;13.20;99.90;;;;;;5013600;28;20029;-70
2022/01/04 08:12:18;;;;;;;1.63;1.42;;;13.30;99.90;;;;;;4981325;28;20117;-68
2022/01/04 08:14:45;;;;;;;2.92;1.50;;;11.30;99.90;;;;;;4976175;28;20125;-70
2022/01/04 08:17:11;;;;;;;1.10;1.05;;;12.10;99.90;;;;;;4993783;28;20037;-71
2022/01/04 08:19:37;;;;;;;1.30;1.20;;;11.30;99.90;;;;;;4993727;28;20027;-70
2022/01/04 08:22:03;;;;;;;2.00;1.90;;;11.60;99.90;;;;;;4994823;28;20453;-70
2022/01/04 08:24:29;;;;;;;2.20;1.25;;;10.60;99.90;;;;;;4994016;28;20038;-70
2022/01/04 08:26:55;;;;;;;2.97;1.40;;;9.60;99.90;;;;;;4994746;28;20034;-69
2022/01/04 08:29:21;;;;;;;1.70;1.60;;;;;;;;;;4994649;28;20181;-69
2022/01/04 08:31:47;;;;;;;3.00;1.50;;;;;;;;;;4981596;28;20062;-70
2022/01/04 08:34:13;;;;;;;3.10;1.40;;;;;;;;;;4979684;28;20065;-69
2022/01/04 08:36:39;;;;;;;2.03;1.42;;;11.50;99.90;;;;;;4994870;28;20495;-70
2022/01/04 08:39:06;;;;;;;2.47;1.30;;;11.10;99.90;;;;;;4995179;28;20465;-68
2022/01/04 08:41:32;;;;;;;1.60;1.08;;;11.70;99.90;;;;;;4995108;28;20038;-69
2022/01/04 08:43:58;;;;;;;1.58;1.13;;;11.20;99.90;;;;;;4995326;28;20037;-69
2022/01/04 08:46:24;;;;;;;1.27;1.00;;;;;;;;;;4993481;28;20405;-70
2022/01/04 08:48:50;;;;;;;2.47;1.10;;;11.60;99.90;;;;;;4998073;28;20038;-70
2022/01/04 08:51:16;;;;;;;38.25;22.55;;;13.20;99.90;;;;;;4991383;28;20034;-69
2022/01/04 08:53:41;;;;;;;1.60;1.50;;;11.70;99.90;;;;;;4991096;28;20053;-68
2022/01/04 08:56:07;;;;;;;16.58;12.55;;;;;;;;;;4993746;28;20186;-69
2022/01/04 08:58:33;;;;;;;1.30;1.20;;;12.20;99.90;;;;;;4994258;28;20035;-70
2022/01/04 09:01:02;;;;;;;2.13;1.92;;;13.40;99.90;;;;;;4992543;28;20030;-69
2022/01/04 09:03:28;;;;;;;3.20;2.22;;;11.90;99.90;;;;;;4992379;28;20395;-70
2022/01/04 09:05:56;;;;;;;2.13;1.50;;;;;;;;;;4992443;28;20030;-71
2022/01/04 09:08:21;;;;;;;2.05;1.20;;;13.00;99.90;;;;;;4985976;28;20038;-71
2022/01/04 09:10:47;;;;;;;5.18;4.28;;;13.20;99.90;;;;;;4991402;28;20030;-71
2022/01/04 09:13:17;;;;;;;5.65;1.60;;;14.10;99.90;;;;;;4987879;28;20121;-72
2022/01/04 09:18:42;;;;;;;1.35;1.25;;;12.90;99.90;;;;;;4973672;28;20034;-71
2022/01/04 09:18:46;;;;;;;2.67;1.60;;;12.20;99.90;;;;;;4992943;28;20113;-73
2022/01/04 09:21:33;;;;;;;2.13;1.27;;;11.60;99.90;;;;;;4993495;28;20027;-70
2022/01/04 09:23:59;;;;;;;2.63;1.48;;;14.10;99.90;;;;;;4992640;28;20057;-70
2022/01/04 09:26:26;;;;;;;6.70;4.15;;;;;;;;;;5050383;23;20063;-71
2022/01/04 09:28:52;;;;;;;1.23;1.13;;;;;;;;;;5019299;28;20018;-71
2022/01/04 09:31:21;;;;;;;1.30;1.20;;;;;;;;;;5013895;28;20026;-72
2022/01/04 09:33:47;;;;;;;1.77;1.45;;;13.10;99.90;;;;;;5013346;28;20376;-71
2022/01/04 09:36:16;;;;;;;1.30;1.20;;;13.90;99.90;;;;;;5014368;28;20034;-71
2022/01/04 09:38:42;;;;;;;1.73;1.35;;;12.30;99.90;;;;;;5013889;28;20114;-71
2022/01/04 09:41:08;;;;;;;5.72;1.30;;;;;;;;;;5011826;28;20447;-71
2022/01/04 09:43:34;;;;;;;2.55;1.40;;;;;;;;;;5013756;28;20029;-70
2022/01/04 09:46:00;;;;;;;1.42;1.33;;;12.10;99.90;;;;;;5013744;28;20080;-71
2022/01/04 09:48:27;;;;;;;3.25;1.30;;;12.10;99.90;;;;;;5013493;28;20026;-71
2022/01/04 09:50:55;;;;;;;2.28;1.40;;;13.60;99.90;;;;;;5013493;28;20058;-71
2022/01/04 09:53:22;;;;;;;4.07;1.48;;;13.20;99.90;;;;;;5012669;28;20105;-71
2022/01/04 09:55:50;;;;;;;2.85;1.48;;;;;;;;;;5013443;28;20488;-71
2022/01/04 09:58:17;;;;;;;9.18;4.90;;;;;;;;;;5013581;28;20026;-72
2022/01/04 10:00:43;;;;;;;2.22;1.35;;;;;;;;;;5012814;28;20396;-71
2022/01/04 10:03:18;;;;;;;2.20;1.25;;;14.30;99.90;;;;;;5013377;28;20117;-71
2022/01/04 10:05:44;;;;;;;2.38;1.20;;;12.30;99.90;;;;;;5013195;28;20022;-71
2022/01/04 10:08:11;;;;;;;2.03;1.50;;;;;;;;;;5013312;28;20056;-69
2022/01/04 10:10:37;;;;;;;1.40;1.30;;;;;;;;;;5011953;28;20038;-71
2022/01/04 10:13:05;;;;;;;4.57;1.50;;;;;;;;;;5012947;28;20508;-71
2022/01/04 10:15:51;;;;;;;2.17;1.55;;;;;;;;;;5013105;28;20037;-73
2022/01/04 10:18:24;;;;;;;4.05;1.90;;;10.20;99.90;;;;;;5012560;28;20044;-72
2022/01/04 10:20:53;;;;;;;3.45;1.40;;;;;;;;;;5010202;28;20041;-69
2022/01/04 10:23:21;;;;;;;4.00;1.73;;;;;;;;;;5013244;28;20036;-69
2022/01/04 10:25:48;;;;;;;3.33;1.42;;;11.90;99.90;;;;;;5011322;28;20167;-69
2022/01/04 10:28:31;;;;;;;4.75;1.67;;;12.40;99.90;;;;;;5013245;28;20380;-69
2022/01/04 10:31:03;;;;;;;3.05;1.63;;;12.10;99.90;;;;;;5008550;28;20167;-71
2022/01/04 10:33:31;;;;;;;5.50;2.08;;;13.00;99.90;;;;;;5012936;28;20033;-71
2022/01/04 10:35:58;;;;;;;2.22;1.65;;;;;;;;;;5012853;28;20034;-70
2022/01/04 10:38:26;;;;;;;4.63;1.73;;;13.00;99.90;;;;;;5012742;28;20022;-71
2022/01/04 10:40:58;;;;;;;3.65;1.70;;;;;;;;;;5011489;28;20044;-71
2022/01/04 10:43:27;;;;;;;;;;;13.30;99.90;;;;;;5013090;28;20026;-71
2022/01/04 10:45:53;;;;;;;273.75;127.18;;;;;;;;;;5012268;28;19916;-71
2022/01/04 10:48:19;;;;;;;2.47;2.22;;;;;;;;;;5012056;28;20085;-71
2022/01/04 10:50:48;;;;;;;3.90;1.67;;;13.00;99.90;;;;;;5011872;28;20022;-70
2022/01/04 10:53:15;;;;;;;2.70;1.90;;;13.00;99.90;;;;;;5011494;28;20038;-72
2022/01/04 10:55:41;;;;;;;4.28;2.65;;;13.10;99.90;;;;;;5011402;28;20072;-68
2022/01/04 10:58:07;;;;;;;2.92;2.13;;;12.90;99.90;;;;;;5012251;28;20029;-68
2022/01/04 11:00:33;;;;;;;3.13;1.50;;;;;;;;;;5011540;28;20037;-67
2022/01/04 11:03:02;;;;;;;2.78;1.52;;;13.00;99.90;;;;;;5012549;28;20108;-68
2022/01/04 11:05:27;;;;;;;3.08;1.40;;;10.50;99.90;;;;;;5011860;28;20113;-67
2022/01/04 11:08:12;;;;;;;3.67;1.55;;;14.90;99.90;;;;;;5012050;28;20118;-68
2022/01/04 11:10:39;;;;;;;1.95;1.48;;;;;;;;;;5003461;28;20038;-67
2022/01/04 11:13:04;;;;;;;3.38;1.52;;;13.00;99.90;;;;;;5011575;28;20030;-67
2022/01/04 11:15:31;;;;;;;2.70;1.75;;;13.60;99.90;;;;;;5009719;28;20030;-71
2022/01/04 11:17:57;;;;;;;3.05;1.83;;;13.00;99.90;;;;;;5008507;28;20022;-71
2022/01/04 11:20:23;;;;;;;3.88;1.90;;;15.50;99.90;;;;;;5011291;28;20399;-72
2022/01/04 11:22:50;;;;;;;5.20;1.80;;;12.90;99.90;;;;;;5011829;28;20041;-73
2022/01/04 11:25:19;;;;;;;2.88;1.85;;;;;;;;;;5011904;28;20041;-66
2022/01/04 11:27:46;;;;;;;12.98;6.32;;;;;;;;;;5012778;28;20040;-73
2022/01/04 11:30:25;;;;;;;1.92;1.75;;;14.80;99.90;;;;;;5011196;28;20034;-74
2022/01/04 11:32:54;;;;;;;3.38;1.80;;;;;;;;;;5011949;28;20030;-71
2022/01/04 11:35:22;;;;;;;1.77;1.52;;;;;;;;;;5010550;28;20033;-72
2022/01/04 11:37:55;;;;;;;2.95;1.90;;;;;;;;;;5011487;28;20488;-73
2022/01/04 11:40:23;;;;;;;3.50;1.35;;;;;;;;;;5010564;28;20034;-72
2022/01/04 11:42:49;;;;;;;4.10;2.10;;;;;;;;;;5011896;28;20030;-71
2022/01/04 11:45:16;;;;;;;4.43;1.73;;;12.70;99.90;;;;;;5011339;28;20026;-72
2022/01/04 11:47:48;;;;;;;4.45;2.22;;;12.00;99.90;;;;;;5011939;28;20022;-72
2022/01/04 11:50:16;;;;;;;3.83;2.00;;;;;;;;;;5011320;28;20052;-72
2022/01/04 11:52:50;;;;;;;3.63;1.75;;;;;;;;;;5012135;28;20030;-72
2022/01/04 11:55:23;;;;;;;2.75;1.98;;;;;;;;;;5011221;28;20026;-70
2022/01/04 11:57:54;;;;;;;4.93;1.80;;;;;;;;;;5011953;28;20029;-69
2022/01/04 12:00:23;;;;;;;3.28;1.77;;;12.60;99.90;;;;;;4999996;28;20646;-71
2022/01/04 12:03:01;;;;;;;1.55;1.45;;;;;;;;;;5015125;28;20038;-69
2022/01/04 12:05:27;;;;;;;4.65;2.03;;;;;;;;;;5032464;28;20030;-68
2022/01/04 12:07:55;;;;;;;2.08;1.40;;;10.50;99.90;;;;;;5023772;28;20388;-69
2022/01/04 12:10:21;;;;;;;1.65;1.55;;;11.30;99.90;;;;;;5011451;28;20060;-68
2022/01/04 12:12:56;;;;;;;3.45;1.70;;;;;;;;;;5011719;28;20488;-69
2022/01/04 12:15:34;;;;;;;4.78;1.70;;;;;;;;;;5011898;28;20101;-70
2022/01/04 12:18:08;;;;;;;2.80;1.80;;;14.80;99.90;;;;;;5011544;28;20034;-69
2022/01/04 12:20:43;;;;;;;3.47;1.70;;;13.60;99.90;;;;;;5010764;28;20117;-69
2022/01/04 12:26:06;;;;;;;4.13;2.08;;;;;;;;;;5010713;28;20149;-69
2022/01/04 12:28:41;;;;;;;1.83;1.70;;;12.60;99.90;;;;;;5011240;28;20113;-69
2022/01/04 12:31:13;;;;;;;3.10;1.70;;;10.40;99.90;;;;;;5010826;28;20272;-69
2022/01/04 12:33:40;;;;;;;7.07;6.30;;;;;;;;;;5011370;28;20049;-69
2022/01/04 12:36:05;;;;;;;6.80;2.72;;;13.40;99.90;;;;;;5011203;28;20093;-69
2022/01/04 12:38:32;;;;;;;3.05;1.80;;;;;;;;;;5011238;28;20429;-69
2022/01/04 12:41:20;;;;;;;8.63;3.45;;;;;;;;;;5011591;28;20030;-76
2022/01/04 12:43:47;;;;;;;4.35;3.08;;;;;;;;;;5013178;28;20392;-75
2022/01/04 12:46:14;;;;;;;2.75;1.60;;;;;;;;;;5009586;28;20032;-79
2022/01/04 12:48:47;;;;;;;4.38;1.88;;;12.40;99.90;;;;;;5016067;28;20223;-70
2022/01/04 12:51:28;;;;;;;3.65;1.55;;;;;;;;;;5014272;28;20084;-70
2022/01/04 12:53:55;;;;;;;2.00;1.50;;;;;;;;;;5014709;28;20041;-70
2022/01/04 12:56:21;;;;;;;3.35;1.70;;;;;;;;;;5029444;28;20022;-70
2022/01/04 12:58:47;;;;;;;3.20;1.70;;;11.70;99.90;;;;;;5014613;28;20160;-69
2022/01/04 13:01:13;;;;;;;2.78;1.73;;;;;;;;;;5016403;28;20073;-70
2022/01/04 13:03:39;;;;;;;2.20;1.25;;;;;;;;;;5014978;28;20113;-69
2022/01/04 13:06:06;;;;;;;3.63;1.52;;;;;;;;;;5015351;28;20088;-69
2022/01/04 13:08:33;;;;;;;3.95;1.58;;;12.30;99.90;;;;;;5017385;28;20053;-69
2022/01/04 13:14:19;;;;;;;3.05;2.00;;;;;;;;;;5014447;28;20032;-79
2022/01/04 13:16:45;;;;;;;1.52;1.40;;;12.70;99.90;;;;;;5014156;28;20427;-70
2022/01/04 13:19:16;;;;;;;3.35;1.45;;;;;;;;;;5013863;28;20116;-75
2022/01/04 13:21:42;;;;;;;4.00;1.85;;;;;;;;;;5014096;28;20033;-68
2022/01/04 13:24:09;;;;;;;7.07;2.65;;;;;;;;;;5014070;28;20391;-69
2022/01/04 13:26:35;;;;;;;3.30;1.80;;;;;;;;;;5014226;28;20399;-69
2022/01/04 13:29:02;;;;;;;2.85;1.30;;;;;;;;;;5013525;28;20061;-69
2022/01/04 13:31:28;;;;;;;5.03;1.45;;;;;;;;;;5013377;28;20113;-72
2022/01/04 13:33:55;;;;;;;2.42;1.45;;;;;;;;;;5014576;28;20096;-77
2022/01/04 13:36:25;;;;;;;3.65;1.30;;;;;;;;;;5013996;28;20030;-78
2022/01/04 13:38:56;;;;;;;1.25;1.17;;;;;;;;;;5013864;28;20427;-78
2022/01/04 13:41:37;;;;;;;3.72;1.35;;;13.10;99.90;;;;;;5013747;28;20096;-78
2022/01/04 13:44:06;;;;;;;1.35;1.25;;;;;;;;;;5014085;28;20042;-78
2022/01/04 13:46:34;;;;;;;2.15;1.27;;;;;;;;;;5014017;28;20037;-78
2022/01/04 13:49:01;;;;;;;2.83;1.50;;;;;;;;;;5013556;28;20109;-78
2022/01/04 13:51:31;;;;;;;3.08;1.67;;;12.60;99.90;;;;;;5013859;28;20033;-78
2022/01/04 13:53:59;;;;;;;1.73;1.38;;;12.70;99.90;;;;;;5014086;28;20038;-78
2022/01/04 13:56:31;;;;;;;1.38;1.20;;;10.40;99.90;;;;;;5013437;28;20037;-78
2022/01/04 13:58:58;;;;;;;3.42;1.40;;;12.70;99.90;;;;;;5014368;28;20479;-78
2022/01/04 14:01:41;;;;;;;1.52;1.27;;;13.70;99.90;;;;;;5013976;28;20030;-78
2022/01/04 14:04:16;;;;;;;2.97;1.30;;;;;;;;;;5014334;28;20387;-78
2022/01/04 14:06:48;;;;;;;2.38;1.30;;;;;;;;;;5013575;28;20061;-78
2022/01/04 14:09:17;;;;;;;1.77;1.42;;;;;;;;;;5027976;28;20033;-77
2022/01/04 14:11:45;;;;;;;3.35;1.90;;;;;;;;;;5013582;28;20076;-78
2022/01/04 14:14:20;;;;;;;3.78;1.27;;;11.30;99.90;;;;;;5013550;28;20034;-78